createdAt,value
2023-03-06T00:00:44.867Z,3.60
2023-03-06T00:03:12.288Z,3.55
2023-03-06T00:05:40.058Z,3.42
2023-03-06T00:08:07.584Z,3.50
2023-03-06T00:10:35.159Z,3.22
2023-03-06T00:13:06.588Z,2.92
2023-03-06T00:15:34.445Z,2.80
2023-03-06T00:18:05.260Z,3.20
2023-03-06T00:20:33.590Z,3.13
2023-03-06T00:23:00.969Z,3.17
2023-03-06T00:25:28.208Z,2.85
2023-03-06T00:27:55.534Z,3.00
2023-03-06T00:30:24.594Z,3.10
2023-03-06T00:32:53.530Z,2.80
2023-03-06T00:35:21.204Z,2.53
2023-03-06T00:37:48.678Z,2.75
2023-03-06T00:40:19.391Z,2.78
2023-03-06T00:42:47.505Z,2.80
2023-03-06T00:45:15.273Z,2.53
2023-03-06T00:47:42.855Z,2.65
2023-03-06T00:50:11.196Z,2.60
2023-03-06T00:52:38.485Z,2.15
2023-03-06T00:55:06.350Z,2.42
2023-03-06T00:57:33.632Z,2.45
2023-03-06T01:00:00.877Z,1.90
2023-03-06T01:02:28.243Z,1.90
2023-03-06T01:04:55.681Z,1.92
2023-03-06T01:07:23.200Z,1.70
2023-03-06T01:09:50.556Z,2.30
2023-03-06T01:12:17.893Z,1.85
2023-03-06T01:14:45.420Z,1.90
2023-03-06T01:17:12.671Z,1.73
2023-03-06T01:19:40.073Z,1.55
2023-03-06T01:22:07.400Z,1.58
2023-03-06T01:24:34.733Z,1.40
2023-03-06T01:27:01.988Z,1.73
2023-03-06T01:29:29.314Z,1.60
2023-03-06T01:31:56.628Z,1.30
2023-03-06T01:34:23.962Z,1.55
2023-03-06T01:36:51.238Z,1.30
2023-03-06T01:39:18.496Z,1.20
2023-03-06T01:41:45.755Z,1.10
2023-03-06T01:44:16.202Z,1.10
2023-03-06T01:46:45.376Z,1.20
2023-03-06T01:49:30.869Z,0.98
2023-03-06T01:52:18.679Z,0.98
2023-03-06T01:54:52.092Z,1.15
2023-03-06T01:57:33.925Z,1.20
2023-03-06T02:00:13.966Z,0.90
2023-03-06T02:02:45.109Z,1.08
2023-03-06T02:05:13.037Z,1.17
2023-03-06T02:07:43.123Z,1.20
2023-03-06T02:10:11.280Z,0.90
2023-03-06T02:12:43.636Z,1.10
2023-03-06T02:15:17.425Z,0.93
2023-03-06T02:17:46.937Z,1.10
2023-03-06T02:20:26.698Z,0.90
2023-03-06T02:23:29.585Z,0.77
2023-03-06T02:25:58.120Z,0.90
2023-03-06T02:28:25.821Z,0.73
2023-03-06T02:30:55.594Z,0.73
2023-03-06T02:33:26.246Z,0.90
2023-03-06T02:36:01.833Z,0.60
2023-03-06T02:38:35.133Z,0.95
2023-03-06T02:41:06.815Z,0.73
2023-03-06T02:43:36.962Z,0.82
2023-03-06T02:46:04.566Z,0.80
2023-03-06T02:48:31.890Z,0.70
2023-03-06T02:50:59.207Z,0.63
2023-03-06T02:53:26.857Z,0.70
2023-03-06T02:55:54.344Z,0.90
2023-03-06T02:58:21.672Z,0.90
2023-03-06T03:00:49.984Z,0.70
2023-03-06T03:03:18.113Z,0.80
2023-03-06T03:05:45.407Z,0.85
2023-03-06T03:08:12.677Z,0.80
2023-03-06T03:10:40.040Z,0.80
2023-03-06T03:13:07.334Z,0.60
2023-03-06T03:15:34.629Z,0.98
2023-03-06T03:18:01.957Z,0.60
2023-03-06T03:20:29.324Z,0.70
2023-03-06T03:22:57.137Z,0.95
2023-03-06T03:25:26.115Z,0.80
2023-03-06T03:27:53.765Z,0.70
2023-03-06T03:30:21.286Z,0.70
2023-03-06T03:32:48.613Z,0.73
2023-03-06T03:35:15.974Z,0.70
2023-03-06T03:37:43.251Z,0.80
2023-03-06T03:40:11.075Z,0.90
2023-03-06T03:42:38.551Z,0.80
2023-03-06T03:45:06.277Z,0.70
2023-03-06T03:47:33.524Z,0.70
2023-03-06T03:50:00.744Z,0.82
2023-03-06T03:52:27.986Z,0.80
2023-03-06T03:54:55.311Z,0.70
2023-03-06T03:57:22.535Z,0.57
2023-03-06T03:59:49.806Z,0.70
2023-03-06T04:02:17.239Z,0.70
2023-03-06T04:04:44.573Z,0.60
2023-03-06T04:07:12.064Z,0.70
2023-03-06T04:09:39.345Z,0.70
2023-03-06T04:12:07.595Z,0.85
2023-03-06T04:14:35.000Z,0.70
2023-03-06T04:17:02.303Z,0.63
2023-03-06T04:19:29.557Z,1.05
2023-03-06T04:21:56.852Z,0.70
2023-03-06T04:24:24.069Z,0.70
2023-03-06T04:26:51.336Z,0.68
2023-03-06T04:29:18.583Z,0.75
2023-03-06T04:31:45.826Z,0.70
2023-03-06T04:34:13.113Z,0.63
2023-03-06T04:36:45.023Z,0.70
2023-03-06T04:39:13.477Z,0.75
2023-03-06T04:41:41.893Z,0.70
2023-03-06T04:44:10.075Z,0.70
2023-03-06T04:46:37.425Z,0.70
2023-03-06T04:49:04.746Z,0.70
2023-03-06T04:51:32.210Z,0.70
2023-03-06T04:53:59.420Z,0.70
2023-03-06T04:56:26.676Z,0.90
2023-03-06T04:58:54.036Z,0.70
2023-03-06T05:01:21.337Z,0.93
2023-03-06T05:03:49.727Z,0.90
2023-03-06T05:06:16.936Z,1.00
2023-03-06T05:08:44.197Z,1.00
2023-03-06T05:11:11.568Z,0.90
2023-03-06T05:13:38.763Z,1.08
2023-03-06T05:16:07.808Z,1.10
2023-03-06T05:18:35.765Z,1.00
2023-03-06T05:21:04.680Z,1.45
2023-03-06T05:23:33.599Z,1.40
2023-03-06T05:26:00.845Z,1.20
2023-03-06T05:28:28.689Z,1.60
2023-03-06T05:30:56.000Z,1.23
2023-03-06T05:33:23.449Z,1.60
2023-03-06T05:35:50.970Z,1.40
2023-03-06T05:38:18.788Z,1.67
2023-03-06T05:40:46.352Z,1.73
2023-03-06T05:43:13.627Z,1.52
2023-03-06T05:45:41.159Z,1.60
2023-03-06T05:48:09.227Z,1.27
2023-03-06T05:50:36.548Z,1.52
2023-03-06T05:53:03.881Z,1.60
2023-03-06T05:55:31.306Z,1.77
2023-03-06T05:57:58.586Z,1.50
2023-03-06T06:00:26.186Z,1.60
2023-03-06T06:02:53.517Z,1.40
2023-03-06T06:05:20.783Z,1.58
2023-03-06T06:07:48.126Z,1.35
2023-03-06T06:10:15.456Z,1.25
2023-03-06T06:12:42.672Z,1.50
2023-03-06T06:15:10.260Z,1.40
2023-03-06T06:17:37.538Z,1.38
2023-03-06T06:20:05.222Z,1.70
2023-03-06T06:22:35.226Z,1.30
2023-03-06T06:25:02.504Z,1.30
2023-03-06T06:27:29.796Z,1.20
2023-03-06T06:29:57.067Z,1.50
2023-03-06T06:32:24.357Z,1.70
2023-03-06T06:34:51.650Z,1.50
2023-03-06T06:37:19.024Z,1.48
2023-03-06T06:39:46.238Z,1.85
2023-03-06T06:42:35.160Z,1.60
2023-03-06T06:45:00.819Z,1.70
2023-03-06T06:47:28.107Z,1.75
2023-03-06T06:49:56.387Z,1.98
2023-03-06T06:52:24.724Z,1.83
2023-03-06T06:54:52.664Z,1.70
2023-03-06T06:57:19.975Z,1.65
2023-03-06T06:59:47.189Z,1.73
2023-03-06T07:02:15.973Z,2.20
2023-03-06T07:04:56.510Z,4.38
2023-03-06T07:07:30.004Z,4.20
2023-03-06T07:09:57.672Z,3.92
2023-03-06T07:12:24.936Z,4.40
2023-03-06T07:14:52.191Z,5.13
2023-03-06T07:17:19.469Z,4.75
2023-03-06T07:19:46.770Z,4.78
2023-03-06T07:22:14.164Z,4.38
2023-03-06T07:24:41.505Z,4.25
2023-03-06T07:27:08.768Z,4.30
2023-03-06T07:29:36.186Z,4.07
2023-03-06T07:32:03.505Z,2.90
2023-03-06T07:34:30.850Z,3.47
2023-03-06T07:36:58.093Z,3.30
2023-03-06T07:39:25.568Z,3.05
2023-03-06T07:41:53.468Z,2.97
2023-03-06T07:44:21.013Z,3.22
2023-03-06T07:46:48.299Z,3.13
2023-03-06T07:49:16.816Z,3.00
2023-03-06T07:51:44.920Z,2.95
2023-03-06T07:54:12.272Z,3.40
2023-03-06T07:56:39.517Z,2.47
2023-03-06T07:59:06.786Z,2.70
2023-03-06T08:01:34.105Z,2.85
2023-03-06T08:04:02.035Z,3.00
2023-03-06T08:06:29.378Z,3.05
2023-03-06T08:08:57.690Z,2.60
2023-03-06T08:11:30.305Z,2.63
2023-03-06T08:13:58.665Z,2.72
2023-03-06T08:16:29.021Z,2.60
2023-03-06T08:18:57.681Z,2.60
2023-03-06T08:21:27.353Z,2.53
2023-03-06T08:23:54.653Z,2.15
2023-03-06T08:26:27.846Z,2.42
2023-03-06T08:28:58.174Z,2.80
2023-03-06T08:31:25.440Z,2.38
2023-03-06T08:33:53.558Z,2.45
2023-03-06T08:36:20.908Z,2.42
2023-03-06T08:38:48.379Z,2.45
2023-03-06T08:41:15.753Z,2.60
2023-03-06T08:43:43.090Z,2.28
2023-03-06T08:46:10.715Z,2.72
2023-03-06T08:48:38.665Z,2.63
2023-03-06T08:51:08.022Z,2.88
2023-03-06T08:53:43.260Z,2.78
2023-03-06T08:56:26.425Z,2.65
2023-03-06T08:58:54.976Z,2.70
2023-03-06T09:01:25.181Z,2.53
2023-03-06T09:03:55.723Z,2.58
2023-03-06T09:06:24.129Z,2.55
2023-03-06T09:08:52.546Z,3.00
2023-03-06T09:11:20.876Z,2.70
2023-03-06T09:13:48.199Z,3.00
2023-03-06T09:16:15.563Z,2.80
2023-03-06T09:18:43.196Z,2.50
2023-03-06T09:21:10.881Z,2.58
2023-03-06T09:23:39.538Z,2.50
2023-03-06T09:26:08.421Z,2.47
2023-03-06T09:28:38.889Z,2.50
2023-03-06T09:31:15.026Z,2.67
2023-03-06T09:33:42.512Z,2.53
2023-03-06T09:36:15.936Z,2.40
2023-03-06T09:38:43.279Z,2.05
2023-03-06T09:41:34.123Z,2.60
2023-03-06T09:44:23.738Z,2.30
2023-03-06T09:46:59.945Z,2.67
2023-03-06T09:49:48.244Z,2.20
2023-03-06T09:52:39.906Z,2.45
2023-03-06T09:55:10.265Z,2.58
2023-03-06T09:57:43.059Z,2.50
2023-03-06T10:00:16.799Z,1.90
2023-03-06T10:02:46.642Z,2.17
2023-03-06T10:05:26.145Z,2.33
2023-03-06T10:08:06.338Z,2.22
2023-03-06T10:10:57.957Z,2.13
2023-03-06T10:13:52.677Z,2.00
2023-03-06T10:16:32.171Z,2.10
2023-03-06T10:19:03.739Z,1.80
2023-03-06T10:21:55.823Z,2.13
2023-03-06T10:24:45.201Z,2.13
2023-03-06T10:27:23.518Z,1.88
2023-03-06T10:30:18.672Z,1.92
2023-03-06T10:32:51.503Z,2.10
2023-03-06T10:35:22.518Z,1.90
2023-03-06T10:37:50.010Z,2.10
2023-03-06T10:40:20.985Z,2.05
2023-03-06T10:42:52.124Z,2.40
2023-03-06T10:45:23.533Z,2.28
2023-03-06T10:48:00.961Z,2.38
2023-03-06T10:50:30.734Z,2.60
2023-03-06T10:53:21.010Z,2.25
2023-03-06T10:55:58.237Z,2.13
2023-03-06T10:58:31.685Z,2.22
2023-03-06T11:01:21.011Z,2.40
2023-03-06T11:03:48.631Z,2.25
2023-03-06T11:06:32.679Z,2.35
2023-03-06T11:09:33.293Z,2.35
2023-03-06T11:12:30.627Z,2.28
2023-03-06T11:15:19.128Z,2.70
2023-03-06T11:17:56.256Z,2.65
2023-03-06T11:20:50.127Z,2.10
2023-03-06T11:23:37.112Z,2.50
2023-03-06T11:26:16.442Z,2.40
2023-03-06T11:28:48.073Z,2.67
2023-03-06T11:31:32.395Z,2.50
2023-03-06T11:34:04.814Z,2.80
2023-03-06T11:36:49.782Z,2.55
2023-03-06T11:39:50.320Z,2.40
2023-03-06T11:42:45.581Z,2.50
2023-03-06T11:45:31.898Z,2.70
2023-03-06T11:48:13.971Z,2.65
2023-03-06T11:50:51.173Z,2.88
2023-03-06T11:53:27.548Z,2.60
2023-03-06T11:56:05.301Z,2.90
2023-03-06T11:58:47.434Z,2.60
2023-03-06T12:01:26.349Z,2.65
2023-03-06T12:03:53.627Z,2.80
2023-03-06T12:06:27.600Z,2.90
2023-03-06T12:09:04.869Z,2.83
2023-03-06T12:11:51.451Z,2.63
2023-03-06T12:14:44.467Z,2.90
2023-03-06T12:17:30.622Z,2.80
2023-03-06T12:20:23.598Z,2.78
2023-03-06T12:23:02.495Z,2.90
2023-03-06T12:25:45.094Z,2.90
2023-03-06T12:28:24.604Z,3.10
2023-03-06T12:31:33.181Z,3.47
2023-03-06T12:34:19.364Z,3.13
2023-03-06T12:36:56.962Z,3.30
2023-03-06T12:39:44.704Z,3.10
2023-03-06T12:42:23.397Z,3.38
2023-03-06T12:45:11.887Z,3.08
2023-03-06T12:47:51.310Z,3.40
2023-03-06T12:50:37.050Z,3.20
2023-03-06T12:53:08.355Z,3.17
2023-03-06T12:55:42.390Z,3.38
2023-03-06T12:58:28.834Z,3.65
2023-03-06T13:01:15.233Z,3.78
2023-03-06T13:04:19.378Z,3.85
2023-03-06T13:07:18.122Z,3.95
2023-03-06T13:10:23.282Z,4.10
2023-03-06T13:12:58.199Z,4.53
2023-03-06T13:15:37.679Z,4.63
2023-03-06T13:18:23.117Z,4.30
2023-03-06T13:20:55.242Z,4.53
2023-03-06T13:23:35.016Z,4.20
2023-03-06T13:26:25.292Z,4.35
2023-03-06T13:28:54.424Z,5.15
2023-03-06T13:31:33.927Z,4.18
2023-03-06T13:34:42.988Z,5.28
2023-03-06T13:37:25.219Z,4.75
2023-03-06T13:39:58.513Z,5.05
2023-03-06T13:42:35.249Z,6.13
2023-03-06T13:45:27.232Z,5.32
2023-03-06T13:48:21.445Z,5.50
2023-03-06T13:50:51.189Z,5.63
2023-03-06T13:53:44.462Z,7.13
2023-03-06T13:56:36.693Z,7.38
2023-03-06T13:59:03.885Z,7.18
2023-03-06T14:01:57.628Z,7.75
2023-03-06T14:04:53.337Z,6.82
2023-03-06T14:07:29.259Z,6.22
2023-03-06T14:10:06.514Z,5.85
2023-03-06T14:12:36.984Z,5.30
2023-03-06T14:15:17.235Z,5.68
2023-03-06T14:18:01.041Z,4.82
2023-03-06T14:20:39.935Z,4.80
2023-03-06T14:23:29.358Z,5.15
2023-03-06T14:26:15.590Z,4.88
2023-03-06T14:28:45.812Z,4.75
2023-03-06T14:31:19.168Z,5.15
2023-03-06T14:34:02.446Z,4.90
2023-03-06T14:36:41.538Z,4.80
2023-03-06T14:39:15.341Z,5.28
2023-03-06T14:41:42.627Z,4.70
2023-03-06T14:44:22.203Z,4.55
2023-03-06T14:46:57.688Z,4.88
2023-03-06T14:49:26.165Z,4.60
2023-03-06T14:51:56.393Z,4.25
2023-03-06T14:54:26.744Z,4.18
2023-03-06T14:57:07.077Z,4.32
2023-03-06T14:59:52.497Z,3.95
2023-03-06T15:02:23.901Z,3.63
2023-03-06T15:05:05.770Z,3.60
2023-03-06T15:07:35.218Z,3.45
2023-03-06T15:10:02.685Z,3.58
2023-03-06T15:12:34.052Z,3.25
2023-03-06T15:15:31.341Z,3.13
2023-03-06T15:17:59.147Z,3.22
2023-03-06T15:20:44.295Z,3.20
2023-03-06T15:23:21.039Z,3.25
2023-03-06T15:25:57.180Z,3.15
2023-03-06T15:28:39.521Z,3.60
2023-03-06T15:31:24.738Z,3.40
2023-03-06T15:34:04.434Z,3.70
2023-03-06T15:36:34.766Z,3.53
2023-03-06T15:39:22.247Z,3.53
2023-03-06T15:41:55.962Z,3.88
2023-03-06T15:44:23.405Z,3.60
2023-03-06T15:46:56.296Z,3.80
2023-03-06T15:49:26.768Z,4.07
2023-03-06T15:51:53.985Z,3.70
2023-03-06T15:54:21.248Z,4.13
2023-03-06T15:56:49.906Z,4.13
2023-03-06T15:59:26.081Z,4.13
2023-03-06T16:01:54.204Z,4.47
2023-03-06T16:04:21.605Z,4.47
2023-03-06T16:06:48.892Z,5.00
2023-03-06T16:09:17.259Z,4.90
2023-03-06T16:11:45.363Z,4.93
2023-03-06T16:14:24.054Z,5.25
2023-03-06T16:16:54.192Z,5.50
2023-03-06T16:19:27.114Z,5.40
2023-03-06T16:21:56.397Z,5.60
2023-03-06T16:24:26.026Z,6.03
2023-03-06T16:26:54.997Z,5.88
2023-03-06T16:29:25.940Z,6.15
2023-03-06T16:31:55.168Z,6.65
2023-03-06T16:34:22.854Z,6.72
2023-03-06T16:36:50.625Z,7.60
2023-03-06T16:39:20.346Z,7.00
2023-03-06T16:41:49.292Z,7.55
2023-03-06T16:44:16.628Z,7.32
2023-03-06T16:46:45.905Z,8.10
2023-03-06T16:49:23.992Z,8.35
2023-03-06T16:51:52.390Z,7.88
2023-03-06T16:54:21.884Z,8.32
2023-03-06T16:56:49.126Z,8.45
2023-03-06T16:59:16.347Z,8.65
2023-03-06T17:01:43.880Z,8.65
2023-03-06T17:04:11.688Z,8.93
2023-03-06T17:06:39.779Z,9.05
2023-03-06T17:09:07.552Z,10.10
2023-03-06T17:11:38.649Z,9.73
2023-03-06T17:14:06.936Z,10.23
2023-03-06T17:16:34.554Z,10.02
2023-03-06T17:19:02.425Z,10.25
2023-03-06T17:21:30.323Z,10.75
2023-03-06T17:23:57.690Z,10.80
2023-03-06T17:26:25.085Z,10.43
2023-03-06T17:28:52.425Z,10.88
2023-03-06T17:31:22.311Z,11.13
2023-03-06T17:33:51.409Z,11.10
2023-03-06T17:36:19.460Z,11.85
2023-03-06T17:38:47.223Z,10.95
2023-03-06T17:41:14.747Z,10.68
2023-03-06T17:43:42.200Z,10.63
2023-03-06T17:46:12.171Z,10.93
2023-03-06T17:48:40.071Z,11.15
2023-03-06T17:51:07.696Z,11.68
2023-03-06T17:53:35.201Z,11.23
2023-03-06T17:56:12.684Z,10.38
2023-03-06T17:58:40.003Z,11.05
2023-03-06T18:01:22.695Z,10.57
2023-03-06T18:03:51.518Z,10.70
2023-03-06T18:06:20.932Z,10.57
2023-03-06T18:08:51.546Z,10.93
2023-03-06T18:11:20.377Z,10.40
2023-03-06T18:13:48.774Z,10.57
2023-03-06T18:16:19.529Z,10.90
2023-03-06T18:18:47.309Z,10.88
2023-03-06T18:21:16.734Z,10.52
2023-03-06T18:23:44.072Z,10.93
2023-03-06T18:26:17.343Z,10.70
2023-03-06T18:28:47.805Z,11.00
2023-03-06T18:31:36.548Z,10.13
2023-03-06T18:34:07.258Z,10.80
2023-03-06T18:36:35.428Z,10.98
2023-03-06T18:39:03.959Z,9.90
2023-03-06T18:41:32.307Z,10.30
2023-03-06T18:44:01.175Z,10.98
2023-03-06T18:46:34.145Z,10.68
2023-03-06T18:49:01.800Z,11.02
2023-03-06T18:51:29.215Z,11.25
2023-03-06T18:54:01.946Z,10.75
2023-03-06T18:56:30.097Z,10.02
2023-03-06T18:59:08.163Z,11.35
2023-03-06T19:01:38.226Z,12.05
2023-03-06T19:04:05.756Z,11.65
2023-03-06T19:06:33.196Z,10.98
2023-03-06T19:09:02.158Z,11.38
2023-03-06T19:11:30.234Z,11.73
2023-03-06T19:13:57.990Z,11.93
2023-03-06T19:16:28.192Z,11.40
2023-03-06T19:18:56.176Z,11.98
2023-03-06T19:21:26.060Z,11.00
2023-03-06T19:23:54.003Z,11.65
2023-03-06T19:26:21.827Z,11.60
2023-03-06T19:28:49.779Z,11.85
2023-03-06T19:31:26.292Z,11.60
2023-03-06T19:33:54.832Z,11.73
2023-03-06T19:36:26.706Z,10.85
2023-03-06T19:38:58.885Z,11.55
2023-03-06T19:41:26.835Z,10.52
2023-03-06T19:43:57.157Z,11.48
2023-03-06T19:46:25.461Z,9.38
2023-03-06T19:49:00.499Z,10.43
2023-03-06T19:51:28.600Z,9.85
2023-03-06T19:53:57.426Z,9.55
2023-03-06T19:56:27.365Z,11.38
2023-03-06T19:58:55.158Z,11.05
2023-03-06T20:01:25.131Z,11.82
2023-03-06T20:03:59.930Z,11.85
2023-03-06T20:06:37.559Z,11.27
2023-03-06T20:09:08.336Z,11.50
2023-03-06T20:11:35.582Z,12.18
2023-03-06T20:14:05.008Z,10.90
2023-03-06T20:16:33.727Z,11.52
2023-03-06T20:19:02.130Z,11.45
2023-03-06T20:21:31.914Z,10.88
2023-03-06T20:23:59.417Z,10.73
2023-03-06T20:26:28.564Z,11.05
2023-03-06T20:28:56.257Z,10.43
2023-03-06T20:31:26.342Z,9.68
2023-03-06T20:33:56.192Z,10.18
2023-03-06T20:36:27.936Z,9.40
2023-03-06T20:38:56.228Z,9.15
2023-03-06T20:41:27.422Z,9.20
2023-03-06T20:43:55.260Z,8.35
2023-03-06T20:46:23.746Z,8.77
2023-03-06T20:48:52.791Z,8.55
2023-03-06T20:51:25.260Z,8.48
2023-03-06T20:53:53.261Z,8.38
2023-03-06T20:56:23.561Z,7.70
2023-03-06T20:58:51.951Z,7.20
2023-03-06T21:01:34.209Z,8.18
2023-03-06T21:04:04.428Z,7.88
2023-03-06T21:06:33.159Z,8.15
2023-03-06T21:09:01.868Z,8.55
2023-03-06T21:11:29.187Z,8.10
2023-03-06T21:13:56.867Z,7.70
2023-03-06T21:16:25.830Z,8.05
2023-03-06T21:18:55.635Z,8.27
2023-03-06T21:21:25.923Z,8.13
2023-03-06T21:23:53.262Z,7.95
2023-03-06T21:26:22.890Z,8.18
2023-03-06T21:28:50.756Z,7.88
2023-03-06T21:31:20.855Z,7.90
2023-03-06T21:33:49.616Z,8.23
2023-03-06T21:36:18.670Z,7.38
2023-03-06T21:38:47.240Z,7.28
2023-03-06T21:41:26.689Z,7.47
2023-03-06T21:43:56.520Z,7.82
2023-03-06T21:46:24.779Z,7.80
2023-03-06T21:48:52.411Z,7.82
2023-03-06T21:51:21.372Z,7.63
2023-03-06T21:53:49.330Z,7.85
2023-03-06T21:56:19.182Z,7.28
2023-03-06T21:58:46.537Z,7.43
2023-03-06T22:01:19.542Z,8.10
2023-03-06T22:03:47.335Z,7.53
2023-03-06T22:06:17.583Z,6.85
2023-03-06T22:08:45.389Z,6.70
2023-03-06T22:11:18.788Z,7.38
2023-03-06T22:13:46.674Z,7.22
2023-03-06T22:16:15.065Z,7.82
2023-03-06T22:18:47.293Z,8.35
2023-03-06T22:21:17.003Z,8.30
2023-03-06T22:23:44.601Z,8.23
2023-03-06T22:26:14.377Z,7.63
2023-03-06T22:28:42.224Z,7.72
2023-03-06T22:31:18.209Z,7.35
2023-03-06T22:33:45.925Z,7.60
2023-03-06T22:36:15.472Z,7.45
2023-03-06T22:38:44.698Z,7.35
2023-03-06T22:41:13.926Z,7.15
2023-03-06T22:43:42.294Z,6.82
2023-03-06T22:46:17.939Z,7.28
2023-03-06T22:48:45.521Z,6.65
2023-03-06T22:51:15.519Z,6.07
2023-03-06T22:53:43.567Z,6.40
2023-03-06T22:56:13.570Z,5.65
2023-03-06T22:58:41.168Z,5.63
2023-03-06T23:01:11.470Z,5.45
2023-03-06T23:03:40.764Z,5.32
2023-03-06T23:06:16.829Z,5.38
2023-03-06T23:08:45.474Z,4.90
2023-03-06T23:11:14.922Z,5.13
2023-03-06T23:13:42.391Z,5.40
2023-03-06T23:16:10.095Z,5.18
2023-03-06T23:18:38.708Z,5.30
2023-03-06T23:21:11.766Z,5.05
2023-03-06T23:23:39.397Z,5.15
2023-03-06T23:26:12.842Z,5.20
2023-03-06T23:28:40.939Z,4.95
2023-03-06T23:31:13.881Z,5.07
2023-03-06T23:33:41.671Z,4.88
2023-03-06T23:36:11.525Z,4.60
2023-03-06T23:38:40.302Z,4.43
2023-03-06T23:41:10.788Z,3.97
2023-03-06T23:43:38.756Z,3.95
2023-03-06T23:46:07.328Z,4.10
2023-03-06T23:48:36.109Z,4.13
2023-03-06T23:51:14.035Z,3.88
2023-03-06T23:53:41.632Z,3.72
2023-03-06T23:56:09.694Z,3.60
2023-03-06T23:58:37.297Z,3.55
